createdAt,value
2023-02-03T00:02:06.091Z,54.05
2023-02-03T00:07:13.233Z,50.22
2023-02-03T00:12:17.640Z,63.47
2023-02-03T00:17:24.798Z,41.95
2023-02-03T00:22:29.070Z,61.65
2023-02-03T00:27:33.627Z,45.08
2023-02-03T00:32:40.983Z,68.68
2023-02-03T00:37:44.989Z,74.22
2023-02-03T00:42:48.954Z,45.33
2023-02-03T00:47:53.023Z,49.17
2023-02-03T00:52:57.766Z,52.42
2023-02-03T00:58:03.171Z,74.70
2023-02-03T01:03:08.111Z,77.65
2023-02-03T01:08:12.376Z,54.95
2023-02-03T01:13:17.111Z,48.35
2023-02-03T01:18:23.806Z,54.33
2023-02-03T01:23:28.561Z,47.95
2023-02-03T01:28:32.665Z,51.60
2023-02-03T01:33:41.650Z,44.10
2023-02-03T01:38:46.392Z,40.03
2023-02-03T01:43:53.439Z,43.38
2023-02-03T01:49:16.644Z,49.80
2023-02-03T01:54:28.019Z,59.40
2023-02-03T01:59:34.551Z,48.83
2023-02-03T02:04:51.298Z,53.80
2023-02-03T02:09:57.783Z,47.95
2023-02-03T02:15:03.303Z,72.22
2023-02-03T02:20:38.734Z,74.63
2023-02-03T02:26:21.697Z,51.92
2023-02-03T02:31:48.134Z,72.10
2023-02-03T02:37:03.144Z,64.65
2023-02-03T02:42:35.607Z,67.97
2023-02-03T02:47:39.750Z,76.22
2023-02-03T02:52:47.314Z,74.15
2023-02-03T02:57:54.015Z,73.95
2023-02-03T03:02:58.458Z,69.32
2023-02-03T03:08:06.114Z,72.70
2023-02-03T03:13:15.007Z,85.40
2023-02-03T03:18:29.971Z,82.78
2023-02-03T03:23:39.996Z,81.45
2023-02-03T03:28:52.617Z,70.30
2023-02-03T03:33:56.641Z,82.20
2023-02-03T03:39:36.234Z,72.95
2023-02-03T03:44:46.672Z,81.90
2023-02-03T03:49:54.408Z,67.15
2023-02-03T03:55:00.390Z,62.05
2023-02-03T04:00:09.882Z,73.45
2023-02-03T04:05:17.144Z,77.03
2023-02-03T04:10:36.696Z,69.85
2023-02-03T04:15:43.370Z,65.18
2023-02-03T04:20:48.070Z,57.33
2023-02-03T04:25:52.787Z,52.08
2023-02-03T04:31:00.719Z,57.42
2023-02-03T04:36:05.296Z,72.45
2023-02-03T04:41:10.348Z,69.85
2023-02-03T04:46:14.358Z,75.45
2023-02-03T04:51:18.550Z,64.93
2023-02-03T04:56:22.482Z,74.95
2023-02-03T05:01:26.790Z,62.25
2023-02-03T05:06:33.116Z,72.90
2023-02-03T05:11:37.521Z,64.30
2023-02-03T05:16:42.498Z,66.80
2023-02-03T05:21:45.975Z,56.08
2023-02-03T05:26:51.066Z,52.42
2023-02-03T05:31:55.887Z,67.78
2023-02-03T05:37:01.253Z,70.45
2023-02-03T05:42:05.615Z,66.97
2023-02-03T05:47:09.953Z,57.70
2023-02-03T05:52:14.759Z,73.35
2023-02-03T05:57:19.593Z,69.93
2023-02-03T06:02:23.834Z,65.15
2023-02-03T06:07:28.128Z,63.00
2023-02-03T06:12:32.249Z,81.30
2023-02-03T06:17:36.341Z,61.75
2023-02-03T06:22:41.031Z,50.13
2023-02-03T06:27:50.288Z,56.83
2023-02-03T06:32:56.229Z,73.53
2023-02-03T06:38:00.957Z,73.35
2023-02-03T06:43:06.048Z,73.00
2023-02-03T06:48:10.683Z,71.82
2023-02-03T06:53:15.075Z,70.70
2023-02-03T06:58:20.054Z,59.03
2023-02-03T07:03:24.302Z,78.13
2023-02-03T07:08:28.098Z,65.03
2023-02-03T07:13:33.425Z,70.05
2023-02-03T07:18:47.419Z,73.97
2023-02-03T07:23:55.302Z,69.40
2023-02-03T07:29:01.043Z,75.22
2023-02-03T07:34:06.613Z,70.82
2023-02-03T07:39:10.561Z,76.10
2023-02-03T07:44:15.620Z,82.38
2023-02-03T07:49:19.515Z,72.28
2023-02-03T07:54:23.779Z,70.55
2023-02-03T07:59:28.060Z,66.40
2023-02-03T08:04:32.448Z,65.63
2023-02-03T08:09:36.831Z,65.93
2023-02-03T08:14:41.027Z,67.57
2023-02-03T08:19:46.445Z,63.78
2023-02-03T08:24:51.336Z,68.15
2023-02-03T08:29:55.523Z,64.97
2023-02-03T08:35:00.318Z,63.03
2023-02-03T08:40:06.175Z,66.88
2023-02-03T08:45:10.895Z,71.38
2023-02-03T08:50:15.042Z,69.20
2023-02-03T08:55:19.547Z,65.05
2023-02-03T09:00:23.576Z,70.57
2023-02-03T09:05:27.819Z,64.00
2023-02-03T09:10:31.701Z,58.08
2023-02-03T09:15:36.073Z,62.67
2023-02-03T09:20:40.149Z,59.03
2023-02-03T09:25:47.842Z,62.17
2023-02-03T09:30:53.234Z,58.47
2023-02-03T09:35:58.736Z,51.70
2023-02-03T09:41:57.379Z,45.50
2023-02-03T09:47:11.630Z,49.05
2023-02-03T09:52:23.644Z,49.67
2023-02-03T09:57:30.078Z,49.20
2023-02-03T10:02:53.045Z,42.70
2023-02-03T10:08:15.348Z,41.90
2023-02-03T10:13:36.663Z,40.67
2023-02-03T10:18:48.190Z,38.25
2023-02-03T10:23:55.334Z,37.28
2023-02-03T10:29:06.204Z,35.90
2023-02-03T10:34:13.039Z,32.77
2023-02-03T10:39:40.342Z,31.85
2023-02-03T10:44:56.228Z,30.98
2023-02-03T10:50:08.207Z,31.15
2023-02-03T10:55:27.121Z,31.15
2023-02-03T11:00:35.188Z,31.23
2023-02-03T11:05:41.489Z,35.05
2023-02-03T11:10:48.765Z,34.80
2023-02-03T11:16:01.420Z,32.63
2023-02-03T11:21:17.838Z,31.25
2023-02-03T11:26:53.703Z,31.60
2023-02-03T11:32:00.981Z,33.15
2023-02-03T11:37:46.003Z,32.50
2023-02-03T11:42:49.719Z,40.15
2023-02-03T11:47:54.386Z,37.47
2023-02-03T11:53:23.672Z,30.10
2023-02-03T11:58:47.672Z,31.35
2023-02-03T12:04:09.979Z,34.13
2023-02-03T12:09:37.572Z,37.55
2023-02-03T12:15:03.330Z,38.92
2023-02-03T12:20:30.119Z,35.60
2023-02-03T12:25:47.177Z,39.17
2023-02-03T12:30:57.364Z,35.42
2023-02-03T12:36:16.306Z,38.83
2023-02-03T12:41:38.780Z,34.40
2023-02-03T12:46:58.456Z,44.95
2023-02-03T12:52:26.896Z,41.45
2023-02-03T12:58:00.324Z,39.30
2023-02-03T13:03:34.768Z,39.33
2023-02-03T13:09:04.157Z,35.85
2023-02-03T13:14:16.922Z,40.83
2023-02-03T13:19:28.470Z,34.60
2023-02-03T13:24:32.760Z,33.92
2023-02-03T13:30:16.349Z,41.40
2023-02-03T13:35:45.340Z,39.08
2023-02-03T13:41:05.358Z,33.73
2023-02-03T13:46:34.839Z,35.25
2023-02-03T13:51:46.578Z,31.80
2023-02-03T13:57:02.536Z,36.03
2023-02-03T14:02:24.783Z,37.53
2023-02-03T14:07:39.158Z,42.35
2023-02-03T14:12:57.720Z,40.45
2023-02-03T14:18:07.929Z,34.38
2023-02-03T14:23:17.938Z,41.10
2023-02-03T14:28:40.350Z,37.88
2023-02-03T14:34:09.334Z,35.42
2023-02-03T14:39:19.035Z,37.03
2023-02-03T14:44:41.725Z,33.95
2023-02-03T14:49:56.830Z,50.47
2023-02-03T14:55:19.819Z,44.70
2023-02-03T15:00:34.011Z,48.92
2023-02-03T15:05:41.403Z,52.08
2023-02-03T15:10:46.163Z,44.08
2023-02-03T15:15:53.891Z,48.85
2023-02-03T15:20:58.635Z,41.92
2023-02-03T15:26:34.472Z,37.35
2023-02-03T15:31:49.155Z,51.75
2023-02-03T15:36:57.365Z,43.67
2023-02-03T15:42:02.807Z,57.28
2023-02-03T15:47:16.909Z,67.82
2023-02-03T15:52:25.719Z,60.63
2023-02-03T15:57:34.251Z,66.55
2023-02-03T16:02:44.065Z,64.38
